Time;durP1;ratioP1;P1;durP2;ratioP2;P2;SDS_P1;SDS_P2;PMS_P1;PMS_P2;Temp;Humidity;BMP_temperature;BMP_pressure;BME280_temperature;BME280_humidity;BME280_pressure;Samples;Min_cycle;Max_cycle;Signal;HPM_P1;HPM_P2
2021/05/01 00:02:09;;;;;;;36.40;27.50;;;;;;;7.48;66.64;100226.00;1594051;88;30690;-69
2021/05/01 00:04:34;;;;;;;37.07;28.43;;;;;;;7.40;66.92;100229.81;1594697;89;25874;-69
2021/05/01 00:07:00;;;;;;;38.33;26.37;;;;;;;7.29;67.18;100231.66;1593981;88;26483;-69
2021/05/01 00:09:26;;;;;;;38.67;27.27;;;;;;;7.29;67.46;100229.06;1594435;88;25984;-69
2021/05/01 00:11:52;;;;;;;39.63;28.33;;;;;;;7.30;67.78;100226.78;1590951;88;34127;-69
2021/05/01 00:14:19;;;;;;;39.60;28.57;;;;;;;7.32;67.98;100226.65;1593848;89;30797;-69
2021/05/01 00:16:46;;;;;;;38.20;29.67;;;;;;;7.35;67.92;100232.84;1594739;88;25831;-69
2021/05/01 00:19:12;;;;;;;39.90;29.85;;;;;;;7.37;68.08;100236.62;1594536;88;25882;-69
2021/05/01 00:21:38;;;;;;;39.55;28.38;;;;;;;7.36;68.17;100229.27;1593624;88;25866;-69
2021/05/01 00:24:05;;;;;;;40.27;30.03;;;;;;;7.41;68.38;100224.94;1609852;87;33168;-69
2021/05/01 00:26:31;;;;;;;42.60;30.25;;;;;;;7.44;68.42;100227.24;1593516;89;25861;-73
2021/05/01 00:28:57;;;;;;;39.57;28.80;;;;;;;7.43;68.37;100231.63;1610863;87;26175;-73
2021/05/01 00:31:24;;;;;;;38.93;28.87;;;;;;;7.45;68.33;100231.01;1594882;88;26486;-73
2021/05/01 00:33:50;;;;;;;39.85;28.52;;;;;;;7.47;68.21;100224.34;1595095;88;25867;-73
2021/05/01 00:36:15;;;;;;;43.97;30.47;;;;;;;7.57;68.48;100236.80;1610844;87;35076;-72
2021/05/01 00:38:44;;;;;;;40.17;30.37;;;;;;;7.59;68.50;100245.77;1594365;89;29771;-73
2021/05/01 00:41:09;;;;;;;44.18;31.77;;;;;;;7.59;68.56;100242.68;1594292;87;25860;-73
2021/05/01 00:43:41;;;;;;;40.80;29.73;;;;;;;7.61;68.61;100249.02;1593571;88;25808;-73
2021/05/01 00:46:08;;;;;;;36.35;26.73;;;;;;;7.59;68.63;100240.08;1610807;87;25899;-73
2021/05/01 00:48:35;;;;;;;35.00;26.35;;;;;;;7.60;68.60;100240.40;1583422;89;25387;-72
2021/05/01 00:51:02;;;;;;;37.48;27.52;;;;;;;7.61;68.62;100247.72;1594595;88;25848;-72
2021/05/01 00:53:28;;;;;;;41.05;28.65;;;;;;;7.60;68.65;100247.39;1593699;88;26394;-73
2021/05/01 00:55:55;;;;;;;38.40;30.15;;;;;;;7.61;68.79;100234.25;1583855;90;25801;-73
2021/05/01 00:58:22;;;;;;;40.50;31.30;;;;;;;7.62;68.93;100231.16;1594233;88;25826;-73
2021/05/01 01:03:36;;;;;;;41.37;29.50;;;;;;;7.60;69.14;100222.19;1594579;89;25855;-73
2021/05/01 01:06:02;;;;;;;40.85;32.17;;;;;;;7.63;69.25;100231.48;1594423;88;25695;-73
2021/05/01 01:08:28;;;;;;;40.20;30.30;;;;;;;7.64;69.38;100235.25;1593796;88;25880;-73
2021/05/01 01:10:54;;;;;;;45.78;31.68;;;;;;;7.63;69.37;100232.78;1610575;87;25714;-73
2021/05/01 01:13:23;;;;;;;41.30;31.80;;;;;;;7.61;69.42;100244.66;1593988;88;26046;-73
2021/05/01 01:15:49;;;;;;;43.83;29.80;;;;;;;7.65;69.54;100239.96;1593816;89;26600;-73
2021/05/01 01:18:16;;;;;;;40.90;31.52;;;;;;;7.73;69.67;100236.95;1594449;88;25728;-73
2021/05/01 01:20:42;;;;;;;39.40;30.43;;;;;;;7.77;69.70;100242.20;1583541;89;25794;-73
2021/05/01 01:23:08;;;;;;;38.15;30.25;;;;;;;7.77;69.76;100252.61;1594038;88;26245;-73
2021/05/01 01:25:34;;;;;;;41.88;30.30;;;;;;;7.77;69.64;100256.97;1583669;89;25803;-73
2021/05/01 01:28:01;;;;;;;46.65;31.57;;;;;;;7.74;69.74;100266.38;1594680;88;25843;-73
2021/05/01 01:30:30;;;;;;;42.25;29.27;;;;;;;7.77;69.88;100265.61;1593048;88;25760;-74
2021/05/01 01:32:58;;;;;;;43.97;31.40;;;;;;;7.82;69.98;100256.04;1610462;88;25360;-73
2021/05/01 01:35:25;;;;;;;44.10;32.80;;;;;;;7.90;70.02;100262.61;1583335;89;25922;-70
2021/05/01 01:37:53;;;;;;;40.78;30.10;;;;;;;7.99;70.14;100270.00;1593967;88;25843;-69
2021/05/01 01:40:21;;;;;;;40.55;31.82;;;;;;;8.00;70.00;100268.56;1611186;88;25773;-69
2021/05/01 01:42:48;;;;;;;47.90;31.10;;;;;;;8.02;70.03;100269.72;1583539;90;25680;-74
2021/05/01 01:45:17;;;;;;;42.75;31.05;;;;;;;8.00;70.00;100272.95;1608781;87;25775;-73
2021/05/01 01:47:43;;;;;;;41.18;30.75;;;;;;;8.00;70.10;100282.06;1576724;89;25792;-74
2021/05/01 01:50:13;;;;;;;40.63;30.48;;;;;;;8.02;70.20;100280.13;1593922;88;25858;-74
2021/05/01 01:52:40;;;;;;;44.95;33.85;;;;;;;8.06;70.23;100276.73;1610641;87;25395;-73
2021/05/01 01:55:13;;;;;;;40.25;29.63;;;;;;;8.06;70.23;100276.73;1592545;87;26600;-73
2021/05/01 01:57:40;;;;;;;41.45;31.68;;;;;;;8.07;70.26;100278.36;1584094;90;26024;-73
2021/05/01 02:00:12;;;;;;;39.48;29.80;;;;;;;8.09;70.30;100276.43;1594317;88;25918;-73
2021/05/01 02:02:39;;;;;;;40.78;30.50;;;;;;;8.13;70.37;100277.29;1593876;88;25811;-74
2021/05/01 02:05:08;;;;;;;37.80;29.10;;;;;;;8.13;70.37;100272.09;1610452;87;25713;-74
2021/05/01 02:07:34;;;;;;;40.05;29.42;;;;;;;8.11;70.28;100274.02;1584177;89;25839;-69
2021/05/01 02:10:00;;;;;;;40.55;29.90;;;;;;;8.08;70.42;100280.02;1594499;88;26145;-70
2021/05/01 02:12:26;;;;;;;46.70;32.03;;;;;;;8.09;70.61;100288.14;1610104;89;26223;-70
2021/05/01 02:14:52;;;;;;;41.83;31.62;;;;;;;8.10;70.70;100290.61;1594018;88;25772;-70
2021/05/01 02:17:18;;;;;;;39.55;30.23;;;;;;;8.12;70.73;100283.45;1594575;89;25854;-70
2021/05/01 02:19:44;;;;;;;42.00;29.90;;;;;;;8.14;70.76;100275.50;1610400;87;25751;-70
2021/05/01 02:22:10;;;;;;;41.23;32.17;;;;;;;8.17;70.74;100277.30;1594417;89;25944;-70
2021/05/01 02:24:36;;;;;;;41.10;29.17;;;;;;;8.20;70.78;100273.09;1613114;87;25836;-69
2021/05/01 02:27:02;;;;;;;40.87;30.57;;;;;;;8.22;70.77;100258.64;1594427;88;34333;-70
2021/05/01 02:29:28;;;;;;;41.10;30.50;;;;;;;8.27;70.83;100262.91;1609755;88;25367;-70
2021/05/01 02:31:54;;;;;;;41.30;29.43;;;;;;;8.31;70.78;100264.71;1584182;89;25872;-69
2021/05/01 02:34:20;;;;;;;39.87;29.83;;;;;;;8.38;70.80;100259.23;1593975;88;25869;-70
2021/05/01 02:36:45;;;;;;;39.50;30.87;;;;;;;8.40;70.60;100253.39;1611186;88;25936;-73
2021/05/01 02:39:12;;;;;;;39.77;30.30;;;;;;;8.39;70.56;100255.68;1610223;87;35036;-73
2021/05/01 02:41:38;;;;;;;42.50;30.80;;;;;;;8.25;70.48;100262.23;1584423;90;25718;-73
2021/05/01 02:44:05;;;;;;;45.07;30.77;;;;;;;8.16;70.74;100260.55;1584050;89;26278;-74
2021/05/01 02:46:31;;;;;;;40.73;30.00;;;;;;;8.13;71.05;100260.37;1594157;89;25803;-74
2021/05/01 02:48:57;;;;;;;42.50;32.10;;;;;;;8.17;71.19;100262.98;1593783;88;25913;-74
2021/05/01 02:51:23;;;;;;;41.88;29.95;;;;;;;8.25;71.35;100247.10;1594529;89;25864;-74
2021/05/01 02:53:49;;;;;;;43.07;32.07;;;;;;;8.28;71.34;100241.09;1594206;88;32615;-73
2021/05/01 02:56:15;;;;;;;42.50;30.92;;;;;;;8.33;71.37;100254.97;1574884;89;26573;-74
2021/05/01 02:58:40;;;;;;;42.13;30.90;;;;;;;8.38;71.39;100247.52;1609943;87;27721;-74
2021/05/01 03:01:06;;;;;;;42.57;30.77;;;;;;;8.36;71.34;100248.14;1584236;89;25767;-74
2021/05/01 03:03:32;;;;;;;38.93;29.87;;;;;;;8.40;71.37;100248.19;1594390;89;35570;-74
2021/05/01 03:05:58;;;;;;;37.23;29.03;;;;;;;8.33;71.17;100266.20;1610935;87;30689;-70
2021/05/01 03:08:24;;;;;;;40.50;30.30;;;;;;;8.24;71.17;100267.12;1594750;88;25788;-69
2021/05/01 03:10:49;;;;;;;37.87;29.27;;;;;;;8.20;71.43;100259.27;1610937;87;26474;-69
2021/05/01 03:13:15;;;;;;;42.73;30.50;;;;;;;8.18;71.52;100250.32;1594516;89;26574;-70
2021/05/01 03:15:41;;;;;;;41.47;29.50;;;;;;;8.23;71.74;100239.43;1610845;87;33993;-70
2021/05/01 03:18:09;;;;;;;40.23;31.33;;;;;;;8.28;71.81;100241.59;1584537;90;31184;-69
2021/05/01 03:20:34;;;;;;;40.92;28.92;;;;;;;8.22;71.56;100252.94;1593916;88;25792;-69
2021/05/01 03:23:01;;;;;;;40.57;30.10;;;;;;;8.13;71.69;100249.95;1594423;88;25932;-69
2021/05/01 03:25:26;;;;;;;41.25;30.88;;;;;;;8.05;71.93;100245.99;1594148;88;25967;-69
2021/05/01 03:27:52;;;;;;;40.27;29.77;;;;;;;8.01;72.11;100255.05;1593725;88;35661;-69
2021/05/01 03:30:20;;;;;;;38.37;30.23;;;;;;;8.03;72.29;100261.42;1594555;89;30249;-69
2021/05/01 03:32:46;;;;;;;41.90;31.10;;;;;;;8.05;72.35;100259.01;1594394;88;25768;-69
2021/05/01 03:35:14;;;;;;;38.57;31.37;;;;;;;8.09;72.39;100248.61;1594467;89;26452;-69
2021/05/01 03:37:42;;;;;;;39.05;30.23;;;;;;;8.09;72.42;100252.52;1594198;88;26058;-69
2021/05/01 03:40:09;;;;;;;39.40;29.72;;;;;;;8.11;72.53;100254.98;1593858;89;25879;-69
2021/05/01 03:42:36;;;;;;;39.50;29.57;;;;;;;8.14;72.60;100245.56;1610869;88;25780;-70
2021/05/01 03:45:05;;;;;;;38.67;29.77;;;;;;;8.22;72.64;100229.51;1594278;88;25963;-70
2021/05/01 03:47:30;;;;;;;39.00;29.48;;;;;;;8.29;72.59;100230.19;1593348;88;25821;-70
2021/05/01 03:49:57;;;;;;;39.43;28.20;;;;;;;8.32;72.57;100231.18;1594455;88;25411;-69
2021/05/01 03:52:23;;;;;;;44.65;29.23;;;;;;;8.36;72.52;100226.82;1594745;89;25931;-69
2021/05/01 03:54:49;;;;;;;40.80;28.75;;;;;;;8.41;72.55;100218.09;1593272;88;25974;-70
2021/05/01 03:57:17;;;;;;;40.43;29.90;;;;;;;8.39;72.40;100216.13;1610240;87;25429;-69
2021/05/01 03:59:43;;;;;;;40.88;29.95;;;;;;;8.41;72.45;100203.77;1583400;89;25815;-74
2021/05/01 04:02:09;;;;;;;37.13;28.03;;;;;;;8.45;72.48;100193.85;1594503;89;25887;-74
2021/05/01 04:04:34;;;;;;;38.20;29.40;;;;;;;8.45;72.41;100188.16;1593169;88;34148;-70
2021/05/01 04:07:00;;;;;;;38.58;28.67;;;;;;;8.47;72.44;100189.80;1583993;90;31312;-69
2021/05/01 04:09:26;;;;;;;38.23;29.42;;;;;;;8.44;72.41;100201.34;1594211;88;25813;-69
2021/05/01 04:11:52;;;;;;;38.37;29.47;;;;;;;8.47;72.52;100204.94;1610861;88;26480;-70
2021/05/01 04:14:18;;;;;;;40.50;27.60;;;;;;;8.51;72.53;100213.25;1594422;88;25792;-69
2021/05/01 04:16:44;;;;;;;40.58;29.45;;;;;;;8.55;72.56;100199.77;1610872;88;33667;-69
2021/05/01 04:19:10;;;;;;;39.77;30.03;;;;;;;8.59;72.60;100201.57;1594254;88;32146;-69
2021/05/01 04:21:35;;;;;;;45.20;29.63;;;;;;;8.59;72.47;100210.22;1594382;89;25911;-70
2021/05/01 04:24:02;;;;;;;39.13;30.40;;;;;;;8.55;72.49;100221.10;1593764;88;27662;-74
2021/05/01 04:26:28;;;;;;;38.75;30.65;;;;;;;8.58;72.61;100215.58;1610594;87;25807;-74
2021/05/01 04:28:56;;;;;;;38.65;30.05;;;;;;;8.62;72.64;100228.61;1594081;88;25832;-73
2021/05/01 04:31:21;;;;;;;36.65;28.50;;;;;;;8.65;72.69;100238.25;1594139;89;25776;-73
2021/05/01 04:33:48;;;;;;;37.55;28.32;;;;;;;8.63;72.68;100238.08;1593030;88;45498;-73
2021/05/01 04:36:14;;;;;;;33.67;26.80;;;;;;;8.65;72.79;100234.84;1593855;89;26866;-73
2021/05/01 04:38:39;;;;;;;36.37;27.57;;;;;;;8.65;72.89;100242.16;1593903;88;25874;-74
2021/05/01 04:41:05;;;;;;;39.93;28.50;;;;;;;8.64;72.79;100244.91;1594254;88;33619;-74
2021/05/01 04:43:32;;;;;;;45.97;32.90;;;;;;;8.61;72.80;100248.64;1594242;88;31770;-74
2021/05/01 04:45:58;;;;;;;41.73;30.52;;;;;;;8.62;72.87;100245.54;1594374;89;25868;-74
2021/05/01 04:48:24;;;;;;;37.90;29.63;;;;;;;8.61;72.87;100245.22;1611493;87;25769;-74
2021/05/01 04:50:51;;;;;;;38.67;29.67;;;;;;;8.61;72.98;100243.43;1594709;89;25888;-73
2021/05/01 04:53:18;;;;;;;39.15;29.70;;;;;;;8.68;73.17;100242.83;1610655;87;25553;-74
2021/05/01 04:55:44;;;;;;;40.45;30.02;;;;;;;8.71;73.16;100239.42;1594542;89;25895;-74
2021/05/01 04:58:11;;;;;;;35.30;29.45;;;;;;;8.83;73.31;100243.86;1610936;87;25669;-73
2021/05/01 05:00:37;;;;;;;33.25;26.73;;;;;;;8.87;73.05;100249.11;1584309;90;26610;-73
2021/05/01 05:03:03;;;;;;;33.67;26.80;;;;;;;8.86;72.90;100245.66;1568677;89;26585;-74
2021/05/01 05:05:29;;;;;;;33.00;25.43;;;;;;;8.88;72.87;100246.81;1595546;89;33129;-73
2021/05/01 05:07:55;;;;;;;34.65;26.00;;;;;;;8.84;72.60;100246.81;1575592;88;25899;-74
2021/05/01 05:10:20;;;;;;;31.60;25.43;;;;;;;8.84;72.76;100238.99;1554834;89;25861;-73
2021/05/01 05:12:48;;;;;;;31.90;24.47;;;;;;;8.87;72.93;100233.47;1554059;90;26955;-74
2021/05/01 05:15:15;;;;;;;31.95;24.12;;;;;;;8.88;72.80;100238.50;1554144;90;25824;-74
2021/05/01 05:17:40;;;;;;;32.55;24.12;;;;;;;8.89;72.82;100238.85;1555004;90;25941;-74
2021/05/01 05:20:08;;;;;;;29.93;23.43;;;;;;;8.93;72.83;100243.25;1554499;90;30669;-73
2021/05/01 05:22:34;;;;;;;29.20;23.62;;;;;;;8.93;72.71;100247.66;1554136;90;25996;-70
2021/05/01 05:25:00;;;;;;;33.27;24.67;;;;;;;8.86;72.73;100256.08;1554374;90;25937;-70
2021/05/01 05:27:26;;;;;;;30.50;24.23;;;;;;;8.90;72.93;100254.00;1554195;90;25782;-69
2021/05/01 05:29:52;;;;;;;27.52;23.75;;;;;;;8.92;72.89;100248.61;1553828;91;25922;-69
2021/05/01 05:32:21;;;;;;;30.75;23.27;;;;;;;8.86;72.83;100252.17;1555091;90;25396;-69
2021/05/01 05:34:49;;;;;;;30.85;24.98;;;;;;;8.86;73.07;100252.66;1556106;90;25979;-70
2021/05/01 05:37:15;;;;;;;31.25;24.40;;;;;;;8.95;73.25;100254.34;1555140;90;25983;-70
2021/05/01 05:39:44;;;;;;;31.05;25.45;;;;;;;9.03;73.28;100253.54;1555915;90;26012;-69
2021/05/01 05:42:11;;;;;;;32.88;24.55;;;;;;;9.09;73.24;100246.41;1556315;90;26480;-69
2021/05/01 05:44:40;;;;;;;31.95;24.92;;;;;;;9.17;73.20;100249.05;1555201;90;25912;-69
2021/05/01 05:47:06;;;;;;;29.15;24.43;;;;;;;9.23;73.06;100256.72;1553667;91;25790;-69
2021/05/01 05:49:32;;;;;;;30.40;25.48;;;;;;;9.28;73.01;100263.09;1555080;90;25995;-69
2021/05/01 05:51:58;;;;;;;36.30;25.20;;;;;;;9.29;72.95;100267.81;1553299;90;25885;-69
2021/05/01 05:54:23;;;;;;;31.25;25.25;;;;;;;9.21;72.68;100265.99;1558068;90;33648;-69
2021/05/01 05:56:49;;;;;;;31.52;24.12;;;;;;;9.26;72.84;100274.66;1555915;90;30765;-69
2021/05/01 05:59:15;;;;;;;31.37;25.03;;;;;;;9.28;72.83;100277.44;1545190;90;25886;-69
2021/05/01 06:01:47;;;;;;;31.13;23.77;;;;;;;9.34;72.86;100274.19;1555133;90;25412;-69
2021/05/01 06:04:17;;;;;;;30.75;24.80;;;;;;;9.38;72.79;100273.38;1556501;90;25799;-69
2021/05/01 06:06:54;;;;;;;29.87;24.00;;;;;;;9.43;72.76;100280.73;1543883;90;25897;-70
2021/05/01 06:09:20;;;;;;;27.62;23.30;;;;;;;9.47;72.68;100277.65;1551561;88;25731;-69
2021/05/01 06:11:48;;;;;;;33.25;24.30;;;;;;;9.53;72.60;100278.80;1542693;90;25834;-69
2021/05/01 06:14:15;;;;;;;32.28;23.95;;;;;;;9.56;72.54;100277.17;1570654;89;26533;-71
2021/05/01 06:16:41;;;;;;;32.48;23.87;;;;;;;9.55;72.48;100278.16;1533928;91;26329;-74
2021/05/01 06:19:09;;;;;;;31.68;24.60;;;;;;;9.61;72.57;100278.01;1570270;89;34306;-73
2021/05/01 06:21:35;;;;;;;52.93;40.50;;;;;;;9.67;72.52;100276.86;1572370;88;25403;-73
2021/05/01 06:24:01;;;;;;;74.00;59.37;;;;;;;9.73;72.49;100279.31;1570668;89;25903;-73
2021/05/01 06:26:27;;;;;;;36.20;28.73;;;;;;;9.74;72.33;100282.27;1543477;90;26424;-75
2021/05/01 06:28:53;;;;;;;31.52;24.72;;;;;;;9.79;72.26;100285.19;1571181;89;25822;-73
2021/05/01 06:31:19;;;;;;;28.77;23.73;;;;;;;9.81;72.32;100284.55;1543788;90;35527;-72
2021/05/01 06:33:47;;;;;;;29.55;24.27;;;;;;;9.85;72.22;100283.25;1568812;89;25824;-73
2021/05/01 06:36:14;;;;;;;31.05;24.60;;;;;;;9.88;72.13;100286.84;1542535;90;25801;-69
2021/05/01 06:38:40;;;;;;;27.82;23.22;;;;;;;9.92;72.15;100289.94;1566108;89;25914;-69
2021/05/01 06:41:09;;;;;;;29.07;22.87;;;;;;;9.95;72.09;100299.55;1547068;90;26012;-70
2021/05/01 06:44:12;;;;;;;28.25;23.05;;;;;;;9.95;72.02;100302.66;1568544;89;25859;-73
2021/05/01 06:46:42;;;;;;;29.95;24.10;;;;;;;9.90;71.78;100307.09;1544822;90;25875;-73
2021/05/01 06:49:16;;;;;;;28.75;23.62;;;;;;;9.91;71.89;100310.01;1568399;89;25935;-73
2021/05/01 06:51:42;;;;;;;29.12;24.80;;;;;;;9.94;71.85;100314.91;1570535;89;25873;-73
2021/05/01 06:56:58;;;;;;;29.47;23.23;;;;;;;9.99;71.79;100306.10;1554182;90;26344;-74
2021/05/01 06:59:26;;;;;;;28.70;23.65;;;;;;;10.03;71.74;100311.80;1524422;91;25894;-74
2021/05/01 07:01:51;;;;;;;29.72;23.10;;;;;;;10.08;71.77;100303.49;1525159;91;25923;-74
2021/05/01 07:04:17;;;;;;;29.17;24.37;;;;;;;10.09;71.71;100305.92;1525763;91;25807;-69
2021/05/01 07:06:45;;;;;;;23.67;20.17;;;;;;;10.11;71.66;100305.77;1527169;91;26030;-71
2021/05/01 07:09:11;;;;;;;28.92;21.20;;;;;;;10.08;71.40;100309.52;1538363;91;25812;-69
2021/05/01 07:11:37;;;;;;;28.15;23.15;;;;;;;9.96;71.26;100309.53;1535536;91;31685;-70
2021/05/01 07:14:03;;;;;;;27.60;22.57;;;;;;;9.95;71.61;100306.08;1551810;90;25432;-70
2021/05/01 07:16:29;;;;;;;28.05;22.45;;;;;;;9.99;71.69;100310.02;1536289;91;25353;-70
2021/05/01 07:18:56;;;;;;;28.93;21.73;;;;;;;10.10;71.91;100306.27;1534847;91;25851;-73
2021/05/01 07:21:22;;;;;;;23.73;19.95;;;;;;;10.20;71.76;100306.09;1521820;91;25943;-74
2021/05/01 07:23:48;;;;;;;26.10;20.25;;;;;;;10.26;71.52;100315.91;1536264;91;25802;-74
2021/05/01 07:26:21;;;;;;;25.77;20.80;;;;;;;10.22;71.35;100321.92;1536110;91;25849;-74
2021/05/01 07:28:50;;;;;;;23.38;20.62;;;;;;;10.23;71.21;100323.58;1538128;91;26640;-74
2021/05/01 07:31:23;;;;;;;25.65;19.82;;;;;;;10.21;71.06;100316.39;1542991;91;25830;-74
2021/05/01 07:33:53;;;;;;;23.25;19.40;;;;;;;10.22;70.90;100313.28;1540784;91;25825;-74
2021/05/01 07:36:30;;;;;;;28.07;19.23;;;;;;;10.25;71.11;100312.95;1548217;90;25803;-73
2021/05/01 07:38:59;;;;;;;24.00;18.95;;;;;;;10.32;71.11;100315.77;1524724;91;25878;-74
2021/05/01 07:41:25;;;;;;;24.20;19.50;;;;;;;10.32;70.60;100304.02;1546866;90;25795;-74
2021/05/01 07:43:53;;;;;;;22.40;18.15;;;;;;;10.32;70.60;100304.02;1533340;91;25953;-74
2021/05/01 07:46:23;;;;;;;22.80;17.27;;;;;;;10.38;70.86;100298.93;1534670;91;25849;-75
2021/05/01 07:48:50;;;;;;;24.52;19.02;;;;;;;10.39;70.47;100304.97;1526751;91;25738;-74
2021/05/01 07:51:17;;;;;;;21.97;18.50;;;;;;;10.40;70.49;100300.89;1517801;91;25885;-74
2021/05/01 07:53:44;;;;;;;24.05;19.02;;;;;;;10.32;70.19;100296.98;1524125;91;25822;-74
2021/05/01 07:56:12;;;;;;;26.00;20.43;;;;;;;10.25;70.57;100297.27;1536458;91;25794;-74
2021/05/01 07:58:38;;;;;;;23.87;18.73;;;;;;;10.31;70.68;100295.83;1532801;91;25820;-74
2021/05/01 08:01:04;;;;;;;25.08;19.95;;;;;;;10.33;70.30;100297.80;1534832;91;26026;-75
2021/05/01 08:03:31;;;;;;;27.42;21.45;;;;;;;10.28;70.43;100299.58;1534247;91;26743;-74
2021/05/01 08:05:57;;;;;;;23.65;20.08;;;;;;;10.21;70.23;100301.20;1533993;91;26456;-75
2021/05/01 08:08:22;;;;;;;26.85;20.75;;;;;;;10.09;70.80;100294.17;1537422;91;25799;-74
2021/05/01 08:10:48;;;;;;;28.87;20.92;;;;;;;9.96;70.82;100294.68;1550835;90;34908;-74
2021/05/01 08:13:14;;;;;;;27.32;22.65;;;;;;;9.88;71.35;100288.15;1526365;91;32129;-74
2021/05/01 08:15:40;;;;;;;29.60;20.77;;;;;;;9.83;71.32;100291.73;1532923;91;26583;-74
2021/05/01 08:18:06;;;;;;;29.57;21.63;;;;;;;9.94;71.78;100290.59;1517660;91;27516;-74
2021/05/01 08:20:34;;;;;;;28.95;21.25;;;;;;;9.85;71.51;100284.56;1534618;91;25860;-74
2021/05/01 08:23:00;;;;;;;23.90;19.35;;;;;;;9.78;71.96;100282.26;1533905;91;27078;-74
2021/05/01 08:25:26;;;;;;;25.17;21.07;;;;;;;9.77;72.23;100281.94;1535277;91;32406;-75
2021/05/01 08:27:54;;;;;;;25.10;19.75;;;;;;;9.71;72.45;100284.71;1545039;90;26460;-74
2021/05/01 08:30:20;;;;;;;23.75;21.15;;;;;;;9.76;72.74;100275.07;1548261;90;26616;-73
2021/05/01 08:32:47;;;;;;;24.10;20.00;;;;;;;9.78;73.02;100275.73;1549370;90;26057;-74
2021/05/01 08:35:15;;;;;;;21.77;18.10;;;;;;;9.79;73.24;100273.44;1552187;90;25813;-74
2021/05/01 08:37:43;;;;;;;22.20;17.52;;;;;;;9.78;73.55;100275.73;1524682;91;25406;-73
2021/05/01 08:40:12;;;;;;;18.98;15.72;;;;;;;9.88;73.98;100276.89;1535251;91;25755;-73
2021/05/01 08:42:47;;;;;;;18.02;15.23;;;;;;;9.83;73.70;100269.54;1524110;92;25976;-74
2021/05/01 08:45:17;;;;;;;21.42;15.18;;;;;;;9.82;73.55;100269.23;1533002;91;25743;-73
2021/05/01 08:47:45;;;;;;;;;;;;;;;9.84;73.58;100267.74;1536460;91;25898;-73
2021/05/01 08:50:32;;;;;;;20.88;14.30;;;;;;;9.90;73.57;100274.91;1536272;91;25751;-74
2021/05/01 08:53:02;;;;;;;16.87;13.40;;;;;;;9.91;73.50;100273.95;1534248;91;26445;-74
2021/05/01 08:55:35;;;;;;;16.85;13.93;;;;;;;9.96;73.73;100268.57;1536300;91;25835;-74
2021/05/01 08:57:59;;;;;;;22.00;17.27;;;;;;;9.99;73.73;100272.66;1534798;91;26015;-74
2021/05/01 09:00:25;;;;;;;20.32;15.75;;;;;;;10.11;73.88;100279.16;1535884;91;32998;-74
2021/05/01 09:02:51;;;;;;;21.97;18.90;;;;;;;10.17;73.62;100279.00;1534410;91;31895;-74
2021/05/01 09:05:18;;;;;;;21.13;17.67;;;;;;;10.18;73.58;100284.56;1523776;91;26281;-74
2021/05/01 09:07:46;;;;;;;25.52;17.67;;;;;;;10.17;73.33;100290.25;1538179;91;25771;-70
2021/05/01 09:10:13;;;;;;;22.48;16.55;;;;;;;10.18;73.33;100292.40;1524242;91;25771;-70
2021/05/01 09:12:46;;;;;;;18.02;14.68;;;;;;;10.19;73.65;100295.33;1535390;91;25404;-71
2021/05/01 09:15:23;;;;;;;21.02;16.50;;;;;;;10.08;73.29;100300.39;1544831;90;25846;-70
2021/05/01 09:18:02;;;;;;;20.90;16.32;;;;;;;10.06;73.27;100302.83;1547924;90;25824;-70
2021/05/01 09:20:28;;;;;;;22.48;17.98;;;;;;;10.13;73.46;100301.21;1534122;91;25849;-70
2021/05/01 09:23:07;;;;;;;32.65;26.68;;;;;;;10.10;73.31;100301.05;1534619;91;25707;-70
2021/05/01 09:25:49;;;;;;;19.92;16.45;;;;;;;10.22;74.11;100302.33;1544761;91;25681;-71
2021/05/01 09:28:17;;;;;;;20.55;14.55;;;;;;;10.38;74.00;100309.88;1542734;91;25387;-71
2021/05/01 09:31:02;;;;;;;16.12;13.65;;;;;;;10.27;73.45;100308.41;1548857;90;25835;-71
2021/05/01 09:33:35;;;;;;;16.48;12.20;;;;;;;10.23;73.50;100307.91;1534361;91;25721;-70
2021/05/01 09:36:12;;;;;;;16.82;13.48;;;;;;;10.19;73.46;100303.16;1535041;91;25756;-71
2021/05/01 09:38:51;;;;;;;17.05;13.32;;;;;;;10.14;73.65;100306.25;1534664;91;25377;-70
2021/05/01 09:41:23;;;;;;;17.90;13.30;;;;;;;10.21;73.92;100303.33;1544437;91;25842;-70
2021/05/01 09:44:15;;;;;;;20.37;13.32;;;;;;;10.31;74.07;100299.75;1544806;91;25732;-71
2021/05/01 09:46:47;;;;;;;14.98;12.37;;;;;;;10.36;74.06;100293.05;1543364;91;25766;-71
2021/05/01 09:49:24;;;;;;;16.48;11.63;;;;;;;10.36;73.81;100289.13;1546843;90;25872;-70
2021/05/01 09:52:03;;;;;;;17.75;12.37;;;;;;;10.34;73.66;100290.27;1526020;92;25937;-71
2021/05/01 09:54:33;;;;;;;15.65;12.13;;;;;;;10.31;73.75;100284.08;1533028;91;25868;-74
2021/05/01 09:57:09;;;;;;;16.70;12.10;;;;;;;10.36;74.06;100272.14;1550289;90;25796;-74
2021/05/01 09:59:44;;;;;;;16.55;14.53;;;;;;;10.47;74.24;100282.74;1543788;91;25886;-74
2021/05/01 10:02:15;;;;;;;14.83;11.88;;;;;;;10.54;74.40;100281.11;1544526;91;25692;-74
2021/05/01 10:05:01;;;;;;;16.25;11.68;;;;;;;10.59;74.26;100284.05;1543103;90;25903;-74
2021/05/01 10:07:28;;;;;;;13.98;10.95;;;;;;;10.58;74.09;100282.39;1548054;90;25759;-74
2021/05/01 10:09:57;;;;;;;17.27;12.63;;;;;;;10.61;74.38;100290.39;1525341;92;26706;-74
2021/05/01 10:12:40;;;;;;;16.60;13.40;;;;;;;10.56;74.06;100281.77;1523688;92;25819;-74
2021/05/01 10:15:24;;;;;;;15.38;11.35;;;;;;;10.43;74.15;100286.69;1533983;91;26025;-74
2021/05/01 10:17:51;;;;;;;15.78;12.37;;;;;;;10.36;74.52;100295.66;1537471;91;25848;-70
2021/05/01 10:20:18;;;;;;;15.60;13.08;;;;;;;10.22;74.92;100298.41;1518632;92;25931;-71
2021/05/01 10:22:50;;;;;;;14.23;11.53;;;;;;;10.18;74.80;100293.21;1547018;90;25860;-71
2021/05/01 10:25:28;;;;;;;14.50;11.63;;;;;;;10.19;75.23;100296.63;1536413;91;25782;-70
2021/05/01 10:30:40;;;;;;;15.60;12.53;;;;;;;10.16;75.54;100292.55;1538229;91;26330;-70
2021/05/01 10:33:29;;;;;;;17.73;12.90;;;;;;;10.23;75.34;100292.73;1524421;91;25802;-71
2021/05/01 10:36:20;;;;;;;17.48;13.10;;;;;;;10.27;75.28;100294.52;1535363;91;25872;-71
2021/05/01 10:39:01;;;;;;;15.60;12.47;;;;;;;10.40;75.54;100294.86;1534124;91;25792;-71
2021/05/01 10:41:31;;;;;;;15.70;11.73;;;;;;;10.55;75.25;100295.80;1531882;91;25775;-70
2021/05/01 10:43:57;;;;;;;15.53;12.20;;;;;;;10.62;75.00;100290.73;1537149;89;25808;-72
2021/05/01 10:46:41;;;;;;;16.87;11.70;;;;;;;10.68;74.51;100293.98;1536263;91;25408;-72
2021/05/01 10:49:10;;;;;;;16.95;13.32;;;;;;;10.70;74.79;100292.02;1537810;91;25961;-71
2021/05/01 10:51:40;;;;;;;15.72;12.15;;;;;;;10.52;74.33;100294.83;1535969;91;25850;-71
2021/05/01 10:54:25;;;;;;;18.67;13.08;;;;;;;10.36;74.83;100302.19;1545465;90;25831;-71
2021/05/01 10:56:56;;;;;;;16.90;12.18;;;;;;;10.31;74.68;100299.75;1540106;91;25913;-70
2021/05/01 10:59:27;;;;;;;16.00;12.43;;;;;;;10.39;74.65;100298.44;1525666;92;25885;-71
2021/05/01 11:01:57;;;;;;;15.05;11.88;;;;;;;10.41;74.43;100300.40;1533329;92;27473;-71
2021/05/01 11:04:25;;;;;;;;;;;;;;;10.38;74.54;100296.81;1541232;91;25866;-74
2021/05/01 11:07:21;;;;;;;15.13;10.65;;;;;;;10.50;74.89;100293.36;1534022;91;25994;-74
2021/05/01 11:09:49;;;;;;;13.95;11.35;;;;;;;10.56;74.56;100292.22;1537979;91;25799;-74
2021/05/01 11:12:23;;;;;;;14.25;11.35;;;;;;;10.58;74.80;100279.78;1523905;92;25832;-74
2021/05/01 11:15:03;;;;;;;15.03;11.00;;;;;;;10.68;74.85;100274.87;1533177;92;25943;-75
2021/05/01 11:17:49;;;;;;;14.30;11.20;;;;;;;10.74;74.62;100267.66;1530012;91;25805;-74
2021/05/01 11:20:17;;;;;;;13.93;11.30;;;;;;;10.79;74.64;100267.48;1523835;93;25908;-74
2021/05/01 11:22:50;;;;;;;14.58;11.40;;;;;;;10.81;74.37;100270.75;1532983;91;25919;-74
2021/05/01 11:25:20;;;;;;;13.60;10.60;;;;;;;10.81;74.27;100262.91;1523794;93;25793;-74
2021/05/01 11:27:49;;;;;;;12.82;10.72;;;;;;;10.76;73.80;100263.09;1523825;92;26506;-75
2021/05/01 11:30:20;;;;;;;13.47;9.97;;;;;;;10.74;73.97;100254.09;1549075;90;25911;-74